sensor_id;sensor_type;location;lat;lon;timestamp;P1;P2;P0
49686;PMS5003;36064;38.180;-122.272;2023-02-26T00:00:00;1.0;1.0;
49686;PMS5003;36064;38.180;-122.272;2023-02-26T00:05:00;0.6;0.6;
49686;PMS5003;36064;38.180;-122.272;2023-02-26T00:10:00;1.4;1.4;
49686;PMS5003;36064;38.180;-122.272;2023-02-26T00:15:01;0.8;0.8;
49686;PMS5003;36064;38.180;-122.272;2023-02-26T00:20:01;1.6;1.6;
49686;PMS5003;36064;38.180;-122.272;2023-02-26T00:25:00;1.6;1.2;
49686;PMS5003;36064;38.180;-122.272;2023-02-26T00:30:01;1.8;1.2;
49686;PMS5003;36064;38.180;-122.272;2023-02-26T00:35:01;1.8;1.2;
49686;PMS5003;36064;38.180;-122.272;2023-02-26T00:40:04;1.8;1.8;
49686;PMS5003;36064;38.180;-122.272;2023-02-26T00:45:00;2.4;2.4;
49686;PMS5003;36064;38.180;-122.272;2023-02-26T00:50:03;2.4;2.4;
49686;PMS5003;36064;38.180;-122.272;2023-02-26T00:55:00;1.4;1.4;
49686;PMS5003;36064;38.180;-122.272;2023-02-26T01:00:00;1.2;1.2;
49686;PMS5003;36064;38.180;-122.272;2023-02-26T01:05:01;1.6;1.6;
49686;PMS5003;36064;38.180;-122.272;2023-02-26T01:10:00;1.4;1.4;
49686;PMS5003;36064;38.180;-122.272;2023-02-26T01:15:00;1.4;1.4;
49686;PMS5003;36064;38.180;-122.272;2023-02-26T01:20:01;2.4;2.4;
49686;PMS5003;36064;38.180;-122.272;2023-02-26T01:25:01;1.2;1.2;
49686;PMS5003;36064;38.180;-122.272;2023-02-26T01:30:01;2.0;2.0;
49686;PMS5003;36064;38.180;-122.272;2023-02-26T01:35:04;4.0;4.0;
49686;PMS5003;36064;38.180;-122.272;2023-02-26T01:45:02;18.6;15.4;
49686;PMS5003;36064;38.180;-122.272;2023-02-26T01:50:07;32.4;28.8;
49686;PMS5003;36064;38.180;-122.272;2023-02-26T01:55:00;20.39;18.19;
49686;PMS5003;36064;38.180;-122.272;2023-02-26T02:00:00;8.8;8.2;
49686;PMS5003;36064;38.180;-122.272;2023-02-26T02:05:01;11.0;10.2;
49686;PMS5003;36064;38.180;-122.272;2023-02-26T02:10:00;25.0;22.6;
49686;PMS5003;36064;38.180;-122.272;2023-02-26T02:15:04;24.2;21.0;
49686;PMS5003;36064;38.180;-122.272;2023-02-26T02:25:04;6.8;6.6;
49686;PMS5003;36064;38.180;-122.272;2023-02-26T02:35:03;6.0;5.8;
49686;PMS5003;36064;38.180;-122.272;2023-02-26T02:40:01;2.8;2.8;
49686;PMS5003;36064;38.180;-122.272;2023-02-26T02:45:02;5.6;5.6;
49686;PMS5003;36064;38.180;-122.272;2023-02-26T02:50:07;6.0;6.0;
49686;PMS5003;36064;38.180;-122.272;2023-02-26T02:55:02;6.0;5.2;
49686;PMS5003;36064;38.180;-122.272;2023-02-26T03:00:02;4.0;4.0;
49686;PMS5003;36064;38.180;-122.272;2023-02-26T03:05:01;5.6;5.2;
49686;PMS5003;36064;38.180;-122.272;2023-02-26T03:10:02;12.2;11.2;
49686;PMS5003;36064;38.180;-122.272;2023-02-26T03:15:00;8.4;8.2;
49686;PMS5003;36064;38.180;-122.272;2023-02-26T03:20:05;8.8;8.0;
49686;PMS5003;36064;38.180;-122.272;2023-02-26T03:25:03;11.0;10.6;
49686;PMS5003;36064;38.180;-122.272;2023-02-26T03:30:02;17.0;15.6;
49686;PMS5003;36064;38.180;-122.272;2023-02-26T03:35:01;23.0;19.0;
49686;PMS5003;36064;38.180;-122.272;2023-02-26T03:40:02;15.0;14.6;
49686;PMS5003;36064;38.180;-122.272;2023-02-26T03:45:01;16.0;15.0;
49686;PMS5003;36064;38.180;-122.272;2023-02-26T03:50:01;14.4;13.2;
49686;PMS5003;36064;38.180;-122.272;2023-02-26T03:55:02;13.0;11.4;
49686;PMS5003;36064;38.180;-122.272;2023-02-26T04:00:00;7.4;5.0;
49686;PMS5003;36064;38.180;-122.272;2023-02-26T04:05:02;7.4;5.4;
49686;PMS5003;36064;38.180;-122.272;2023-02-26T04:10:00;7.6;6.2;
49686;PMS5003;36064;38.180;-122.272;2023-02-26T04:15:02;6.6;6.0;
49686;PMS5003;36064;38.180;-122.272;2023-02-26T04:20:00;5.0;5.0;
49686;PMS5003;36064;38.180;-122.272;2023-02-26T04:25:00;4.8;4.8;
49686;PMS5003;36064;38.180;-122.272;2023-02-26T04:30:00;5.0;4.6;
49686;PMS5003;36064;38.180;-122.272;2023-02-26T04:35:00;5.2;4.6;
49686;PMS5003;36064;38.180;-122.272;2023-02-26T04:40:00;2.4;2.0;
49686;PMS5003;36064;38.180;-122.272;2023-02-26T04:45:00;2.0;1.2;
49686;PMS5003;36064;38.180;-122.272;2023-02-26T04:50:00;0.8;0.6;
49686;PMS5003;36064;38.180;-122.272;2023-02-26T04:55:00;0.8;0.6;
49686;PMS5003;36064;38.180;-122.272;2023-02-26T05:00:00;0.8;0.6;
49686;PMS5003;36064;38.180;-122.272;2023-02-26T05:05:00;0.8;0.6;
49686;PMS5003;36064;38.180;-122.272;2023-02-26T05:10:00;0.8;0.6;
49686;PMS5003;36064;38.180;-122.272;2023-02-26T05:15:00;0.8;0.6;
49686;PMS5003;36064;38.180;-122.272;2023-02-26T05:20:01;0.8;0.6;
49686;PMS5003;36064;38.180;-122.272;2023-02-26T05:25:00;0.8;0.6;
49686;PMS5003;36064;38.180;-122.272;2023-02-26T05:30:00;0.8;0.4;
49686;PMS5003;36064;38.180;-122.272;2023-02-26T05:35:00;0.6;0.4;
49686;PMS5003;36064;38.180;-122.272;2023-02-26T05:40:00;0.6;0.4;
49686;PMS5003;36064;38.180;-122.272;2023-02-26T05:45:00;0.6;0.4;
49686;PMS5003;36064;38.180;-122.272;2023-02-26T05:50:00;0.6;0.4;
49686;PMS5003;36064;38.180;-122.272;2023-02-26T05:55:00;0.6;0.4;
49686;PMS5003;36064;38.180;-122.272;2023-02-26T06:00:00;0.6;0.4;
49686;PMS5003;36064;38.180;-122.272;2023-02-26T06:05:01;0.6;0.4;
49686;PMS5003;36064;38.180;-122.272;2023-02-26T06:10:00;0.6;0.4;
49686;PMS5003;36064;38.180;-122.272;2023-02-26T06:15:00;0.6;0.4;
49686;PMS5003;36064;38.180;-122.272;2023-02-26T06:20:00;0.0;0.4;
49686;PMS5003;36064;38.180;-122.272;2023-02-26T06:25:00;0.4;0.4;
49686;PMS5003;36064;38.180;-122.272;2023-02-26T06:30:00;0.4;0.4;
49686;PMS5003;36064;38.180;-122.272;2023-02-26T06:35:01;0.4;0.4;
49686;PMS5003;36064;38.180;-122.272;2023-02-26T06:40:00;0.4;0.4;
49686;PMS5003;36064;38.180;-122.272;2023-02-26T06:45:00;0.4;0.4;
49686;PMS5003;36064;38.180;-122.272;2023-02-26T06:50:00;0.4;0.4;
49686;PMS5003;36064;38.180;-122.272;2023-02-26T06:55:00;0.4;0.4;
49686;PMS5003;36064;38.180;-122.272;2023-02-26T07:00:00;0.0;0.0;
49686;PMS5003;36064;38.180;-122.272;2023-02-26T07:05:01;1.0;1.0;
49686;PMS5003;36064;38.180;-122.272;2023-02-26T07:10:00;1.0;1.0;
49686;PMS5003;36064;38.180;-122.272;2023-02-26T07:15:00;0.0;0.0;
49686;PMS5003;36064;38.180;-122.272;2023-02-26T07:20:00;1.0;1.0;
49686;PMS5003;36064;38.180;-122.272;2023-02-26T07:25:00;2.8;2.0;
49686;PMS5003;36064;38.180;-122.272;2023-02-26T07:30:01;0.8;0.8;
49686;PMS5003;36064;38.180;-122.272;2023-02-26T07:35:00;0.8;0.8;
49686;PMS5003;36064;38.180;-122.272;2023-02-26T07:40:00;0.2;1.0;
49686;PMS5003;36064;38.180;-122.272;2023-02-26T07:45:00;0.4;1.0;
49686;PMS5003;36064;38.180;-122.272;2023-02-26T07:50:00;0.4;1.0;
49686;PMS5003;36064;38.180;-122.272;2023-02-26T07:55:00;0.4;0.4;
49686;PMS5003;36064;38.180;-122.272;2023-02-26T08:00:00;1.2;0.8;
49686;PMS5003;36064;38.180;-122.272;2023-02-26T08:05:00;0.8;0.6;
49686;PMS5003;36064;38.180;-122.272;2023-02-26T08:10:00;0.4;0.4;
49686;PMS5003;36064;38.180;-122.272;2023-02-26T08:15:01;0.4;0.4;
49686;PMS5003;36064;38.180;-122.272;2023-02-26T08:20:00;0.4;0.4;
49686;PMS5003;36064;38.180;-122.272;2023-02-26T08:25:00;0.4;0.4;
49686;PMS5003;36064;38.180;-122.272;2023-02-26T08:30:00;0.4;0.4;
49686;PMS5003;36064;38.180;-122.272;2023-02-26T08:35:00;0.4;0.4;
49686;PMS5003;36064;38.180;-122.272;2023-02-26T08:40:00;0.4;0.4;
49686;PMS5003;36064;38.180;-122.272;2023-02-26T08:45:00;0.4;0.4;
49686;PMS5003;36064;38.180;-122.272;2023-02-26T08:50:00;0.4;0.4;
49686;PMS5003;36064;38.180;-122.272;2023-02-26T08:55:00;0.4;0.4;
49686;PMS5003;36064;38.180;-122.272;2023-02-26T09:00:00;0.4;0.4;
49686;PMS5003;36064;38.180;-122.272;2023-02-26T09:05:00;0.4;0.4;
49686;PMS5003;36064;38.180;-122.272;2023-02-26T09:10:00;1.0;0.4;
49686;PMS5003;36064;38.180;-122.272;2023-02-26T09:15:00;0.6;0.4;
49686;PMS5003;36064;38.180;-122.272;2023-02-26T09:20:00;0.6;0.6;
49686;PMS5003;36064;38.180;-122.272;2023-02-26T09:25:01;0.8;0.8;
49686;PMS5003;36064;38.180;-122.272;2023-02-26T09:30:00;0.6;0.8;
49686;PMS5003;36064;38.180;-122.272;2023-02-26T09:35:00;0.0;0.8;
49686;PMS5003;36064;38.180;-122.272;2023-02-26T09:40:00;0.4;0.8;
49686;PMS5003;36064;38.180;-122.272;2023-02-26T09:45:01;0.4;0.8;
49686;PMS5003;36064;38.180;-122.272;2023-02-26T09:50:02;0.4;0.8;
49686;PMS5003;36064;38.180;-122.272;2023-02-26T09:55:02;0.4;0.8;
49686;PMS5003;36064;38.180;-122.272;2023-02-26T10:00:01;0.0;0.0;
49686;PMS5003;36064;38.180;-122.272;2023-02-26T10:05:03;0.6;0.4;
49686;PMS5003;36064;38.180;-122.272;2023-02-26T10:10:06;0.6;0.4;
49686;PMS5003;36064;38.180;-122.272;2023-02-26T10:15:01;0.8;0.4;
49686;PMS5003;36064;38.180;-122.272;2023-02-26T10:20:02;0.8;0.4;
49686;PMS5003;36064;38.180;-122.272;2023-02-26T10:25:02;0.4;0.4;
49686;PMS5003;36064;38.180;-122.272;2023-02-26T10:30:02;0.4;0.4;
49686;PMS5003;36064;38.180;-122.272;2023-02-26T10:35:02;0.6;0.6;
49686;PMS5003;36064;38.180;-122.272;2023-02-26T10:40:02;0.8;0.8;
49686;PMS5003;36064;38.180;-122.272;2023-02-26T10:45:04;0.6;0.4;
49686;PMS5003;36064;38.180;-122.272;2023-02-26T10:50:01;0.6;0.4;
49686;PMS5003;36064;38.180;-122.272;2023-02-26T10:55:05;0.4;0.4;
49686;PMS5003;36064;38.180;-122.272;2023-02-26T11:00:00;0.4;0.4;
49686;PMS5003;36064;38.180;-122.272;2023-02-26T11:05:01;0.4;0.4;
49686;PMS5003;36064;38.180;-122.272;2023-02-26T11:10:00;0.0;0.4;
49686;PMS5003;36064;38.180;-122.272;2023-02-26T11:15:00;0.4;0.4;
49686;PMS5003;36064;38.180;-122.272;2023-02-26T11:20:01;0.4;0.4;
49686;PMS5003;36064;38.180;-122.272;2023-02-26T11:25:00;0.4;0.4;
49686;PMS5003;36064;38.180;-122.272;2023-02-26T11:30:03;0.0;0.4;
49686;PMS5003;36064;38.180;-122.272;2023-02-26T11:35:01;1.2;0.8;
49686;PMS5003;36064;38.180;-122.272;2023-02-26T11:40:03;1.2;0.8;
49686;PMS5003;36064;38.180;-122.272;2023-02-26T11:45:00;2.4;2.4;
49686;PMS5003;36064;38.180;-122.272;2023-02-26T11:50:01;1.2;0.4;
49686;PMS5003;36064;38.180;-122.272;2023-02-26T11:55:01;0.6;0.2;
49686;PMS5003;36064;38.180;-122.272;2023-02-26T12:00:02;1.0;1.0;
49686;PMS5003;36064;38.180;-122.272;2023-02-26T12:05:02;1.6;1.6;
49686;PMS5003;36064;38.180;-122.272;2023-02-26T12:10:00;2.4;2.4;
49686;PMS5003;36064;38.180;-122.272;2023-02-26T12:15:04;2.0;2.4;
49686;PMS5003;36064;38.180;-122.272;2023-02-26T12:20:03;1.0;1.0;
49686;PMS5003;36064;38.180;-122.272;2023-02-26T12:30:04;0.6;0.6;
49686;PMS5003;36064;38.180;-122.272;2023-02-26T12:35:07;1.8;1.2;
49686;PMS5003;36064;38.180;-122.272;2023-02-26T12:40:04;2.8;2.6;
49686;PMS5003;36064;38.180;-122.272;2023-02-26T12:45:07;1.6;1.2;
49686;PMS5003;36064;38.180;-122.272;2023-02-26T12:50:06;1.0;0.8;
49686;PMS5003;36064;38.180;-122.272;2023-02-26T12:55:04;0.2;0.2;
49686;PMS5003;36064;38.180;-122.272;2023-02-26T13:00:07;1.2;0.8;
49686;PMS5003;36064;38.180;-122.272;2023-02-26T13:05:04;1.8;0.8;
49686;PMS5003;36064;38.180;-122.272;2023-02-26T13:10:02;1.8;1.0;
49686;PMS5003;36064;38.180;-122.272;2023-02-26T13:15:04;1.0;0.8;
49686;PMS5003;36064;38.180;-122.272;2023-02-26T13:20:01;0.6;0.8;
49686;PMS5003;36064;38.180;-122.272;2023-02-26T13:25:01;0.6;0.8;
49686;PMS5003;36064;38.180;-122.272;2023-02-26T13:30:05;0.6;0.8;
49686;PMS5003;36064;38.180;-122.272;2023-02-26T13:35:02;0.4;0.4;
49686;PMS5003;36064;38.180;-122.272;2023-02-26T13:40:03;0.2;0.2;
49686;PMS5003;36064;38.180;-122.272;2023-02-26T13:45:06;0.6;0.6;
49686;PMS5003;36064;38.180;-122.272;2023-02-26T13:50:04;0.6;0.6;
49686;PMS5003;36064;38.180;-122.272;2023-02-26T13:55:01;0.6;0.6;
49686;PMS5003;36064;38.180;-122.272;2023-02-26T14:00:02;0.6;0.6;
49686;PMS5003;36064;38.180;-122.272;2023-02-26T14:05:05;0.4;0.4;
49686;PMS5003;36064;38.180;-122.272;2023-02-26T14:10:02;0.4;0.4;
49686;PMS5003;36064;38.180;-122.272;2023-02-26T14:25:04;0.8;0.8;
49686;PMS5003;36064;38.180;-122.272;2023-02-26T14:30:04;1.8;1.8;
49686;PMS5003;36064;38.180;-122.272;2023-02-26T14:35:03;0.6;0.6;
49686;PMS5003;36064;38.180;-122.272;2023-02-26T14:40:02;1.8;0.6;
49686;PMS5003;36064;38.180;-122.272;2023-02-26T14:45:05;2.0;1.8;
49686;PMS5003;36064;38.180;-122.272;2023-02-26T14:50:00;1.2;0.4;
49686;PMS5003;36064;38.180;-122.272;2023-02-26T14:55:04;1.2;0.4;
49686;PMS5003;36064;38.180;-122.272;2023-02-26T15:00:05;1.4;1.4;
49686;PMS5003;36064;38.180;-122.272;2023-02-26T15:05:11;0.4;0.4;
49686;PMS5003;36064;38.180;-122.272;2023-02-26T15:10:08;0.6;0.6;
49686;PMS5003;36064;38.180;-122.272;2023-02-26T15:15:05;1.6;1.2;
49686;PMS5003;36064;38.180;-122.272;2023-02-26T15:20:04;0.8;0.8;
49686;PMS5003;36064;38.180;-122.272;2023-02-26T15:25:00;1.6;1.6;
49686;PMS5003;36064;38.180;-122.272;2023-02-26T15:30:00;1.2;0.8;
49686;PMS5003;36064;38.180;-122.272;2023-02-26T15:35:02;1.6;1.2;
49686;PMS5003;36064;38.180;-122.272;2023-02-26T15:40:03;1.0;1.0;
49686;PMS5003;36064;38.180;-122.272;2023-02-26T15:45:00;0.2;0.2;
49686;PMS5003;36064;38.180;-122.272;2023-02-26T15:50:00;0.2;0.2;
49686;PMS5003;36064;38.180;-122.272;2023-02-26T15:55:01;1.0;1.0;
49686;PMS5003;36064;38.180;-122.272;2023-02-26T16:00:04;1.6;1.6;
49686;PMS5003;36064;38.180;-122.272;2023-02-26T16:05:01;1.6;1.2;
49686;PMS5003;36064;38.180;-122.272;2023-02-26T16:10:03;1.8;1.6;
49686;PMS5003;36064;38.180;-122.272;2023-02-26T16:15:02;2.8;2.6;
49686;PMS5003;36064;38.180;-122.272;2023-02-26T16:20:02;1.6;1.2;
49686;PMS5003;36064;38.180;-122.272;2023-02-26T16:25:02;2.8;2.0;
49686;PMS5003;36064;38.180;-122.272;2023-02-26T16:30:01;2.2;2.0;
49686;PMS5003;36064;38.180;-122.272;2023-02-26T16:35:07;2.2;1.8;
49686;PMS5003;36064;38.180;-122.272;2023-02-26T16:40:07;0.8;0.4;
49686;PMS5003;36064;38.180;-122.272;2023-02-26T16:45:02;2.4;2.0;
49686;PMS5003;36064;38.180;-122.272;2023-02-26T16:50:01;2.6;2.4;
49686;PMS5003;36064;38.180;-122.272;2023-02-26T16:55:02;1.6;1.4;
49686;PMS5003;36064;38.180;-122.272;2023-02-26T17:00:02;1.0;1.0;
49686;PMS5003;36064;38.180;-122.272;2023-02-26T17:05:01;1.2;1.6;
49686;PMS5003;36064;38.180;-122.272;2023-02-26T17:10:05;2.6;2.4;
49686;PMS5003;36064;38.180;-122.272;2023-02-26T17:15:00;1.4;1.4;
49686;PMS5003;36064;38.180;-122.272;2023-02-26T17:20:00;1.8;1.0;
49686;PMS5003;36064;38.180;-122.272;2023-02-26T17:25:00;1.8;0.6;
49686;PMS5003;36064;38.180;-122.272;2023-02-26T17:30:01;1.6;1.0;
49686;PMS5003;36064;38.180;-122.272;2023-02-26T17:35:01;2.0;1.8;
49686;PMS5003;36064;38.180;-122.272;2023-02-26T17:40:00;2.4;2.4;
49686;PMS5003;36064;38.180;-122.272;2023-02-26T17:45:01;1.6;0.8;
49686;PMS5003;36064;38.180;-122.272;2023-02-26T17:50:00;1.8;1.4;
49686;PMS5003;36064;38.180;-122.272;2023-02-26T17:55:00;2.0;1.4;
49686;PMS5003;36064;38.180;-122.272;2023-02-26T18:00:00;1.8;1.0;
49686;PMS5003;36064;38.180;-122.272;2023-02-26T18:05:00;1.8;1.6;
49686;PMS5003;36064;38.180;-122.272;2023-02-26T18:10:00;1.4;1.4;
49686;PMS5003;36064;38.180;-122.272;2023-02-26T18:15:00;2.4;1.8;
49686;PMS5003;36064;38.180;-122.272;2023-02-26T18:20:00;3.0;1.4;
49686;PMS5003;36064;38.180;-122.272;2023-02-26T18:25:00;2.4;1.8;
49686;PMS5003;36064;38.180;-122.272;2023-02-26T18:30:00;1.8;1.8;
49686;PMS5003;36064;38.180;-122.272;2023-02-26T18:35:00;1.4;0.6;
49686;PMS5003;36064;38.180;-122.272;2023-02-26T18:40:00;1.6;0.8;
49686;PMS5003;36064;38.180;-122.272;2023-02-26T18:45:00;0.8;0.8;
49686;PMS5003;36064;38.180;-122.272;2023-02-26T18:50:01;3.6;3.6;
49686;PMS5003;36064;38.180;-122.272;2023-02-26T18:55:00;0.4;0.0;
49686;PMS5003;36064;38.180;-122.272;2023-02-26T19:00:00;0.6;1.2;
49686;PMS5003;36064;38.180;-122.272;2023-02-26T19:05:00;2.4;1.2;
49686;PMS5003;36064;38.180;-122.272;2023-02-26T19:10:00;1.0;0.6;
49686;PMS5003;36064;38.180;-122.272;2023-02-26T19:15:00;2.8;1.6;
49686;PMS5003;36064;38.180;-122.272;2023-02-26T19:20:00;1.2;0.6;
49686;PMS5003;36064;38.180;-122.272;2023-02-26T19:25:00;4.4;1.6;
49686;PMS5003;36064;38.180;-122.272;2023-02-26T19:30:00;6.4;4.0;
49686;PMS5003;36064;38.180;-122.272;2023-02-26T19:35:00;2.0;2.0;
49686;PMS5003;36064;38.180;-122.272;2023-02-26T19:40:00;1.8;1.8;
49686;PMS5003;36064;38.180;-122.272;2023-02-26T19:45:00;1.4;1.4;
49686;PMS5003;36064;38.180;-122.272;2023-02-26T19:50:01;8.0;7.2;
49686;PMS5003;36064;38.180;-122.272;2023-02-26T19:55:00;0.4;0.4;
49686;PMS5003;36064;38.180;-122.272;2023-02-26T20:00:00;19.0;17.0;
49686;PMS5003;36064;38.180;-122.272;2023-02-26T20:05:00;2.4;1.8;
49686;PMS5003;36064;38.180;-122.272;2023-02-26T20:10:00;2.4;1.6;
49686;PMS5003;36064;38.180;-122.272;2023-02-26T20:15:00;10.6;10.6;
49686;PMS5003;36064;38.180;-122.272;2023-02-26T20:20:00;1.2;1.2;
49686;PMS5003;36064;38.180;-122.272;2023-02-26T20:25:00;2.0;1.6;
49686;PMS5003;36064;38.180;-122.272;2023-02-26T20:30:01;2.0;2.0;
49686;PMS5003;36064;38.180;-122.272;2023-02-26T20:35:00;4.2;3.8;
49686;PMS5003;36064;38.180;-122.272;2023-02-26T20:40:00;4.4;4.2;
49686;PMS5003;36064;38.180;-122.272;2023-02-26T20:45:00;1.0;1.0;
49686;PMS5003;36064;38.180;-122.272;2023-02-26T20:50:00;1.2;1.2;
49686;PMS5003;36064;38.180;-122.272;2023-02-26T20:55:00;2.4;2.0;
49686;PMS5003;36064;38.180;-122.272;2023-02-26T21:00:00;1.8;1.4;
49686;PMS5003;36064;38.180;-122.272;2023-02-26T21:05:00;3.4;3.2;
49686;PMS5003;36064;38.180;-122.272;2023-02-26T21:10:00;1.8;1.8;
49686;PMS5003;36064;38.180;-122.272;2023-02-26T21:15:01;3.4;3.4;
49686;PMS5003;36064;38.180;-122.272;2023-02-26T21:20:00;1.6;1.6;
49686;PMS5003;36064;38.180;-122.272;2023-02-26T21:25:00;4.6;4.2;
49686;PMS5003;36064;38.180;-122.272;2023-02-26T21:30:02;4.6;5.2;
49686;PMS5003;36064;38.180;-122.272;2023-02-26T21:35:00;1.4;1.0;
49686;PMS5003;36064;38.180;-122.272;2023-02-26T21:40:00;3.2;2.6;
49686;PMS5003;36064;38.180;-122.272;2023-02-26T21:45:00;2.2;2.0;
49686;PMS5003;36064;38.180;-122.272;2023-02-26T21:50:00;3.6;2.2;
49686;PMS5003;36064;38.180;-122.272;2023-02-26T21:55:00;4.2;2.4;
49686;PMS5003;36064;38.180;-122.272;2023-02-26T22:00:00;4.8;4.0;
49686;PMS5003;36064;38.180;-122.272;2023-02-26T22:05:00;4.0;3.6;
49686;PMS5003;36064;38.180;-122.272;2023-02-26T22:10:00;5.0;4.4;
49686;PMS5003;36064;38.180;-122.272;2023-02-26T22:15:00;2.6;2.2;
49686;PMS5003;36064;38.180;-122.272;2023-02-26T22:20:00;1.8;2.0;
49686;PMS5003;36064;38.180;-122.272;2023-02-26T22:25:00;2.2;1.6;
49686;PMS5003;36064;38.180;-122.272;2023-02-26T22:30:00;3.2;2.4;
49686;PMS5003;36064;38.180;-122.272;2023-02-26T22:35:00;3.6;2.0;
49686;PMS5003;36064;38.180;-122.272;2023-02-26T22:40:00;2.4;1.2;
49686;PMS5003;36064;38.180;-122.272;2023-02-26T22:45:00;2.0;1.4;
49686;PMS5003;36064;38.180;-122.272;2023-02-26T22:50:00;1.0;1.0;
49686;PMS5003;36064;38.180;-122.272;2023-02-26T22:55:00;0.2;0.2;
49686;PMS5003;36064;38.180;-122.272;2023-02-26T23:00:00;4.4;3.6;
49686;PMS5003;36064;38.180;-122.272;2023-02-26T23:05:00;4.4;3.6;
49686;PMS5003;36064;38.180;-122.272;2023-02-26T23:10:00;3.0;2.6;
49686;PMS5003;36064;38.180;-122.272;2023-02-26T23:15:01;2.2;2.0;
49686;PMS5003;36064;38.180;-122.272;2023-02-26T23:20:00;2.2;1.8;
49686;PMS5003;36064;38.180;-122.272;2023-02-26T23:25:00;2.4;2.4;
49686;PMS5003;36064;38.180;-122.272;2023-02-26T23:30:01;1.0;2.4;
49686;PMS5003;36064;38.180;-122.272;2023-02-26T23:35:01;2.2;2.4;
49686;PMS5003;36064;38.180;-122.272;2023-02-26T23:40:00;1.6;0.6;
49686;PMS5003;36064;38.180;-122.272;2023-02-26T23:45:00;2.2;1.4;
49686;PMS5003;36064;38.180;-122.272;2023-02-26T23:50:00;1.4;1.0;
49686;PMS5003;36064;38.180;-122.272;2023-02-26T23:55:00;0.4;0.4;
